Terminal Aerodrome Forecast
Issued by NWS Wilmington, OH

Home | Current Version | Previous Version | Text Only | Print | Product List | Glossary On
Versions: 1 2 3 4 5 6 7 8 9 10 11 12 13 14 15 16 17 18 19
000
FTUS41 KILN 140100 AAA
TAFILN
TAF AMD
KILN 140103Z 1401/1424 26005KT P6SM VCSH BKN080
      TEMPO 1402/1406 5SM -SHRA BR OVC035
     FM140600 24004KT 4SM BR BKN025
     FM141400 23009KT P6SM VCSH SCT040 BKN100
     FM142000 25010KT P6SM VCTS BKN040CB=

USA.gov is the U.S. government's official web portal to all federal, state and local government web resources and services.